sensor_id;sensor_type;location;lat;lon;timestamp;P1;durP1;ratioP1;P2;durP2;ratioP2
60016;SDS011;45869;52.698;6.210;2023-08-06T00:00:06;9.32;;;8.18;;
60016;SDS011;45869;52.698;6.210;2023-08-06T00:02:33;11.85;;;8.73;;
60016;SDS011;45869;52.698;6.210;2023-08-06T00:04:59;10.60;;;8.05;;
60016;SDS011;45869;52.698;6.210;2023-08-06T00:07:25;11.10;;;9.07;;
60016;SDS011;45869;52.698;6.210;2023-08-06T00:09:51;9.98;;;8.43;;
60016;SDS011;45869;52.698;6.210;2023-08-06T00:12:17;11.07;;;8.40;;
60016;SDS011;45869;52.698;6.210;2023-08-06T00:14:43;9.38;;;8.32;;
60016;SDS011;45869;52.698;6.210;2023-08-06T00:17:10;9.55;;;8.55;;
60016;SDS011;45869;52.698;6.210;2023-08-06T00:19:36;8.75;;;7.65;;
60016;SDS011;45869;52.698;6.210;2023-08-06T00:22:02;10.77;;;7.90;;
60016;SDS011;45869;52.698;6.210;2023-08-06T00:24:28;9.07;;;7.75;;
60016;SDS011;45869;52.698;6.210;2023-08-06T00:26:54;8.35;;;7.22;;
60016;SDS011;45869;52.698;6.210;2023-08-06T00:29:20;11.00;;;8.60;;
60016;SDS011;45869;52.698;6.210;2023-08-06T00:31:46;10.27;;;8.20;;
60016;SDS011;45869;52.698;6.210;2023-08-06T00:34:12;8.32;;;7.15;;
60016;SDS011;45869;52.698;6.210;2023-08-06T00:36:38;12.10;;;8.00;;
60016;SDS011;45869;52.698;6.210;2023-08-06T00:39:05;9.10;;;7.55;;
60016;SDS011;45869;52.698;6.210;2023-08-06T00:41:32;13.63;;;9.15;;
60016;SDS011;45869;52.698;6.210;2023-08-06T00:43:58;11.00;;;8.68;;
60016;SDS011;45869;52.698;6.210;2023-08-06T00:46:27;10.98;;;8.60;;
60016;SDS011;45869;52.698;6.210;2023-08-06T00:48:53;8.73;;;7.25;;
60016;SDS011;45869;52.698;6.210;2023-08-06T00:51:19;12.23;;;8.95;;
60016;SDS011;45869;52.698;6.210;2023-08-06T00:53:46;11.10;;;8.30;;
60016;SDS011;45869;52.698;6.210;2023-08-06T00:56:12;10.63;;;8.10;;
60016;SDS011;45869;52.698;6.210;2023-08-06T00:58:39;9.18;;;7.78;;
60016;SDS011;45869;52.698;6.210;2023-08-06T01:01:05;10.20;;;7.68;;
60016;SDS011;45869;52.698;6.210;2023-08-06T01:03:31;11.75;;;8.48;;
60016;SDS011;45869;52.698;6.210;2023-08-06T01:05:57;10.73;;;8.13;;
60016;SDS011;45869;52.698;6.210;2023-08-06T01:08:28;9.38;;;7.60;;
60016;SDS011;45869;52.698;6.210;2023-08-06T01:13:47;10.02;;;8.23;;
60016;SDS011;45869;52.698;6.210;2023-08-06T01:16:18;10.85;;;8.18;;
60016;SDS011;45869;52.698;6.210;2023-08-06T01:18:45;12.38;;;8.20;;
60016;SDS011;45869;52.698;6.210;2023-08-06T01:21:14;9.45;;;8.00;;
60016;SDS011;45869;52.698;6.210;2023-08-06T01:23:41;10.05;;;8.45;;
60016;SDS011;45869;52.698;6.210;2023-08-06T01:28:37;10.10;;;8.68;;
60016;SDS011;45869;52.698;6.210;2023-08-06T01:31:07;9.03;;;7.40;;
60016;SDS011;45869;52.698;6.210;2023-08-06T01:33:38;8.05;;;7.10;;
60016;SDS011;45869;52.698;6.210;2023-08-06T01:36:10;9.30;;;7.95;;
60016;SDS011;45869;52.698;6.210;2023-08-06T01:38:36;10.20;;;7.80;;
60016;SDS011;45869;52.698;6.210;2023-08-06T01:41:02;10.02;;;8.27;;
60016;SDS011;45869;52.698;6.210;2023-08-06T01:43:29;10.15;;;8.40;;
60016;SDS011;45869;52.698;6.210;2023-08-06T01:45:55;9.65;;;7.78;;
60016;SDS011;45869;52.698;6.210;2023-08-06T01:48:21;10.77;;;9.18;;
60016;SDS011;45869;52.698;6.210;2023-08-06T01:50:47;9.68;;;7.43;;
60016;SDS011;45869;52.698;6.210;2023-08-06T01:53:13;11.85;;;8.80;;
60016;SDS011;45869;52.698;6.210;2023-08-06T01:55:39;8.40;;;7.22;;
60016;SDS011;45869;52.698;6.210;2023-08-06T01:58:05;9.80;;;7.32;;
60016;SDS011;45869;52.698;6.210;2023-08-06T02:00:33;9.75;;;8.70;;
60016;SDS011;45869;52.698;6.210;2023-08-06T02:03:00;7.90;;;7.05;;
60016;SDS011;45869;52.698;6.210;2023-08-06T02:05:25;10.93;;;7.53;;
60016;SDS011;45869;52.698;6.210;2023-08-06T02:07:54;10.38;;;7.97;;
60016;SDS011;45869;52.698;6.210;2023-08-06T02:10:20;12.77;;;8.15;;
60016;SDS011;45869;52.698;6.210;2023-08-06T02:19:04;10.95;;;8.18;;
60016;SDS011;45869;52.698;6.210;2023-08-06T02:21:39;9.75;;;8.13;;
60016;SDS011;45869;52.698;6.210;2023-08-06T02:24:05;8.38;;;7.47;;
60016;SDS011;45869;52.698;6.210;2023-08-06T02:26:31;11.18;;;9.10;;
60016;SDS011;45869;52.698;6.210;2023-08-06T02:29:00;10.30;;;8.38;;
60016;SDS011;45869;52.698;6.210;2023-08-06T02:31:26;9.55;;;8.55;;
60016;SDS011;45869;52.698;6.210;2023-08-06T02:33:52;13.93;;;9.52;;
60016;SDS011;45869;52.698;6.210;2023-08-06T02:36:19;10.50;;;8.75;;
60016;SDS011;45869;52.698;6.210;2023-08-06T02:38:45;9.52;;;8.60;;
60016;SDS011;45869;52.698;6.210;2023-08-06T02:41:11;10.43;;;9.32;;
60016;SDS011;45869;52.698;6.210;2023-08-06T02:43:42;10.63;;;9.02;;
60016;SDS011;45869;52.698;6.210;2023-08-06T02:46:08;9.88;;;8.57;;
60016;SDS011;45869;52.698;6.210;2023-08-06T02:48:34;12.52;;;9.32;;
60016;SDS011;45869;52.698;6.210;2023-08-06T02:51:00;13.35;;;10.20;;
60016;SDS011;45869;52.698;6.210;2023-08-06T02:53:26;10.43;;;8.93;;
60016;SDS011;45869;52.698;6.210;2023-08-06T02:55:52;11.90;;;8.75;;
60016;SDS011;45869;52.698;6.210;2023-08-06T02:58:19;12.63;;;9.90;;
60016;SDS011;45869;52.698;6.210;2023-08-06T03:01:01;13.13;;;9.52;;
60016;SDS011;45869;52.698;6.210;2023-08-06T03:03:28;11.77;;;9.63;;
60016;SDS011;45869;52.698;6.210;2023-08-06T03:05:54;10.60;;;9.48;;
60016;SDS011;45869;52.698;6.210;2023-08-06T03:08:20;13.65;;;10.23;;
60016;SDS011;45869;52.698;6.210;2023-08-06T03:10:47;13.43;;;10.60;;
60016;SDS011;45869;52.698;6.210;2023-08-06T03:13:14;10.32;;;9.20;;
60016;SDS011;45869;52.698;6.210;2023-08-06T03:15:40;12.25;;;10.05;;
60016;SDS011;45869;52.698;6.210;2023-08-06T03:18:06;12.05;;;9.60;;
60016;SDS011;45869;52.698;6.210;2023-08-06T03:20:32;10.93;;;8.60;;
60016;SDS011;45869;52.698;6.210;2023-08-06T03:23:01;11.35;;;9.85;;
60016;SDS011;45869;52.698;6.210;2023-08-06T03:25:27;9.45;;;8.45;;
60016;SDS011;45869;52.698;6.210;2023-08-06T03:27:53;10.43;;;9.27;;
60016;SDS011;45869;52.698;6.210;2023-08-06T03:30:19;10.57;;;8.90;;
60016;SDS011;45869;52.698;6.210;2023-08-06T03:32:45;9.88;;;8.30;;
60016;SDS011;45869;52.698;6.210;2023-08-06T03:35:12;12.40;;;8.80;;
60016;SDS011;45869;52.698;6.210;2023-08-06T03:37:38;13.60;;;9.57;;
60016;SDS011;45869;52.698;6.210;2023-08-06T03:40:07;12.85;;;9.80;;
60016;SDS011;45869;52.698;6.210;2023-08-06T03:42:33;12.55;;;9.60;;
60016;SDS011;45869;52.698;6.210;2023-08-06T03:44:59;10.40;;;9.02;;
60016;SDS011;45869;52.698;6.210;2023-08-06T03:47:25;11.98;;;8.77;;
60016;SDS011;45869;52.698;6.210;2023-08-06T03:49:51;11.35;;;8.55;;
60016;SDS011;45869;52.698;6.210;2023-08-06T03:52:20;10.25;;;8.13;;
60016;SDS011;45869;52.698;6.210;2023-08-06T03:54:46;10.50;;;8.32;;
60016;SDS011;45869;52.698;6.210;2023-08-06T03:57:12;10.55;;;8.05;;
60016;SDS011;45869;52.698;6.210;2023-08-06T03:59:38;11.38;;;9.60;;
60016;SDS011;45869;52.698;6.210;2023-08-06T04:02:04;10.48;;;8.05;;
60016;SDS011;45869;52.698;6.210;2023-08-06T04:04:30;10.82;;;8.52;;
60016;SDS011;45869;52.698;6.210;2023-08-06T04:06:56;9.45;;;7.18;;
60016;SDS011;45869;52.698;6.210;2023-08-06T04:09:22;10.00;;;8.07;;
60016;SDS011;45869;52.698;6.210;2023-08-06T04:11:48;8.77;;;7.82;;
60016;SDS011;45869;52.698;6.210;2023-08-06T04:14:14;9.23;;;7.90;;
60016;SDS011;45869;52.698;6.210;2023-08-06T04:16:40;10.02;;;8.10;;
60016;SDS011;45869;52.698;6.210;2023-08-06T04:19:06;9.50;;;7.57;;
60016;SDS011;45869;52.698;6.210;2023-08-06T04:21:32;9.70;;;8.00;;
60016;SDS011;45869;52.698;6.210;2023-08-06T04:23:59;7.88;;;7.05;;
60016;SDS011;45869;52.698;6.210;2023-08-06T04:26:25;8.85;;;7.70;;
60016;SDS011;45869;52.698;6.210;2023-08-06T04:28:51;9.25;;;8.05;;
60016;SDS011;45869;52.698;6.210;2023-08-06T04:31:17;12.32;;;8.85;;
60016;SDS011;45869;52.698;6.210;2023-08-06T04:33:43;9.57;;;8.18;;
60016;SDS011;45869;52.698;6.210;2023-08-06T04:36:09;9.25;;;7.78;;
60016;SDS011;45869;52.698;6.210;2023-08-06T04:38:44;9.43;;;7.18;;
60016;SDS011;45869;52.698;6.210;2023-08-06T04:41:12;9.50;;;7.63;;
60016;SDS011;45869;52.698;6.210;2023-08-06T04:43:38;9.90;;;7.63;;
60016;SDS011;45869;52.698;6.210;2023-08-06T04:46:05;8.48;;;7.43;;
60016;SDS011;45869;52.698;6.210;2023-08-06T04:48:31;9.20;;;7.60;;
60016;SDS011;45869;52.698;6.210;2023-08-06T04:50:57;9.65;;;7.20;;
60016;SDS011;45869;52.698;6.210;2023-08-06T04:53:23;9.57;;;8.43;;
60016;SDS011;45869;52.698;6.210;2023-08-06T04:55:49;13.05;;;9.23;;
60016;SDS011;45869;52.698;6.210;2023-08-06T04:58:15;9.93;;;8.80;;
60016;SDS011;45869;52.698;6.210;2023-08-06T05:00:41;11.68;;;8.95;;
60016;SDS011;45869;52.698;6.210;2023-08-06T05:03:08;10.65;;;8.43;;
60016;SDS011;45869;52.698;6.210;2023-08-06T05:05:34;8.27;;;7.22;;
60016;SDS011;45869;52.698;6.210;2023-08-06T05:08:02;11.32;;;8.95;;
60016;SDS011;45869;52.698;6.210;2023-08-06T05:10:28;9.77;;;8.75;;
60016;SDS011;45869;52.698;6.210;2023-08-06T05:12:54;10.18;;;8.13;;
60016;SDS011;45869;52.698;6.210;2023-08-06T05:15:21;9.63;;;8.20;;
60016;SDS011;45869;52.698;6.210;2023-08-06T05:17:47;9.60;;;8.18;;
60016;SDS011;45869;52.698;6.210;2023-08-06T05:20:13;10.02;;;7.60;;
60016;SDS011;45869;52.698;6.210;2023-08-06T05:22:39;9.80;;;8.13;;
60016;SDS011;45869;52.698;6.210;2023-08-06T05:25:05;8.73;;;7.53;;
60016;SDS011;45869;52.698;6.210;2023-08-06T05:27:32;7.80;;;6.95;;
60016;SDS011;45869;52.698;6.210;2023-08-06T05:29:58;10.27;;;8.82;;
60016;SDS011;45869;52.698;6.210;2023-08-06T05:32:26;10.15;;;7.82;;
60016;SDS011;45869;52.698;6.210;2023-08-06T05:34:52;8.93;;;7.47;;
60016;SDS011;45869;52.698;6.210;2023-08-06T05:37:18;9.70;;;8.13;;
60016;SDS011;45869;52.698;6.210;2023-08-06T05:39:44;9.95;;;7.57;;
60016;SDS011;45869;52.698;6.210;2023-08-06T05:42:10;8.52;;;7.20;;
60016;SDS011;45869;52.698;6.210;2023-08-06T05:44:39;8.52;;;7.60;;
60016;SDS011;45869;52.698;6.210;2023-08-06T05:47:05;8.15;;;6.90;;
60016;SDS011;45869;52.698;6.210;2023-08-06T05:49:31;8.55;;;7.63;;
60016;SDS011;45869;52.698;6.210;2023-08-06T05:52:00;9.68;;;7.57;;
60016;SDS011;45869;52.698;6.210;2023-08-06T05:54:39;11.30;;;8.20;;
60016;SDS011;45869;52.698;6.210;2023-08-06T05:57:08;9.85;;;7.93;;
60016;SDS011;45869;52.698;6.210;2023-08-06T05:59:34;10.85;;;7.40;;
60016;SDS011;45869;52.698;6.210;2023-08-06T06:02:00;8.63;;;7.65;;
60016;SDS011;45869;52.698;6.210;2023-08-06T06:04:27;9.27;;;8.05;;
60016;SDS011;45869;52.698;6.210;2023-08-06T06:06:54;8.20;;;7.05;;
60016;SDS011;45869;52.698;6.210;2023-08-06T06:09:20;8.40;;;7.38;;
60016;SDS011;45869;52.698;6.210;2023-08-06T06:11:49;10.32;;;7.75;;
60016;SDS011;45869;52.698;6.210;2023-08-06T06:14:16;9.65;;;8.25;;
60016;SDS011;45869;52.698;6.210;2023-08-06T06:16:42;9.30;;;7.60;;
60016;SDS011;45869;52.698;6.210;2023-08-06T06:19:08;10.07;;;7.60;;
60016;SDS011;45869;52.698;6.210;2023-08-06T06:21:34;8.43;;;7.32;;
60016;SDS011;45869;52.698;6.210;2023-08-06T06:24:00;9.68;;;7.95;;
60016;SDS011;45869;52.698;6.210;2023-08-06T06:26:26;8.60;;;7.20;;
60016;SDS011;45869;52.698;6.210;2023-08-06T06:28:55;11.32;;;7.45;;
60016;SDS011;45869;52.698;6.210;2023-08-06T06:31:23;8.68;;;7.57;;
60016;SDS011;45869;52.698;6.210;2023-08-06T06:33:55;8.60;;;7.53;;
60016;SDS011;45869;52.698;6.210;2023-08-06T06:36:21;9.35;;;8.10;;
60016;SDS011;45869;52.698;6.210;2023-08-06T06:38:48;9.65;;;8.00;;
60016;SDS011;45869;52.698;6.210;2023-08-06T06:41:14;9.65;;;8.65;;
60016;SDS011;45869;52.698;6.210;2023-08-06T06:43:40;11.18;;;8.15;;
60016;SDS011;45869;52.698;6.210;2023-08-06T06:46:07;10.07;;;7.40;;
60016;SDS011;45869;52.698;6.210;2023-08-06T06:48:33;8.27;;;7.40;;
60016;SDS011;45869;52.698;6.210;2023-08-06T06:50:59;9.93;;;7.45;;
60016;SDS011;45869;52.698;6.210;2023-08-06T06:53:25;10.15;;;7.40;;
60016;SDS011;45869;52.698;6.210;2023-08-06T06:56:03;9.10;;;7.53;;
60016;SDS011;45869;52.698;6.210;2023-08-06T06:58:30;8.27;;;7.15;;
60016;SDS011;45869;52.698;6.210;2023-08-06T07:00:56;10.27;;;7.18;;
60016;SDS011;45869;52.698;6.210;2023-08-06T07:03:22;10.05;;;8.65;;
60016;SDS011;45869;52.698;6.210;2023-08-06T07:05:49;11.63;;;9.27;;
60016;SDS011;45869;52.698;6.210;2023-08-06T07:08:15;10.25;;;8.20;;
60016;SDS011;45869;52.698;6.210;2023-08-06T07:10:44;10.05;;;8.65;;
60016;SDS011;45869;52.698;6.210;2023-08-06T07:13:19;10.40;;;9.18;;
60016;SDS011;45869;52.698;6.210;2023-08-06T07:15:47;11.40;;;8.98;;
60016;SDS011;45869;52.698;6.210;2023-08-06T07:18:13;9.00;;;8.07;;
60016;SDS011;45869;52.698;6.210;2023-08-06T07:20:39;9.88;;;8.88;;
60016;SDS011;45869;52.698;6.210;2023-08-06T07:23:05;9.07;;;8.05;;
60016;SDS011;45869;52.698;6.210;2023-08-06T07:25:31;10.05;;;8.75;;
60016;SDS011;45869;52.698;6.210;2023-08-06T07:27:57;9.20;;;7.88;;
60016;SDS011;45869;52.698;6.210;2023-08-06T07:30:23;9.85;;;8.70;;
60016;SDS011;45869;52.698;6.210;2023-08-06T07:32:49;10.43;;;9.23;;
60016;SDS011;45869;52.698;6.210;2023-08-06T07:35:18;11.60;;;9.32;;
60016;SDS011;45869;52.698;6.210;2023-08-06T07:37:44;10.88;;;9.60;;
60016;SDS011;45869;52.698;6.210;2023-08-06T07:40:11;12.35;;;9.55;;
60016;SDS011;45869;52.698;6.210;2023-08-06T07:42:37;12.40;;;11.10;;
60016;SDS011;45869;52.698;6.210;2023-08-06T07:45:03;10.60;;;9.43;;
60016;SDS011;45869;52.698;6.210;2023-08-06T07:47:29;13.00;;;10.45;;
60016;SDS011;45869;52.698;6.210;2023-08-06T07:49:55;15.75;;;10.23;;
60016;SDS011;45869;52.698;6.210;2023-08-06T07:52:21;11.77;;;10.57;;
60016;SDS011;45869;52.698;6.210;2023-08-06T07:54:47;10.68;;;9.57;;
60016;SDS011;45869;52.698;6.210;2023-08-06T07:57:13;12.20;;;10.38;;
60016;SDS011;45869;52.698;6.210;2023-08-06T07:59:45;11.73;;;10.40;;
60016;SDS011;45869;52.698;6.210;2023-08-06T08:02:14;10.50;;;9.35;;
60016;SDS011;45869;52.698;6.210;2023-08-06T08:04:40;12.55;;;10.75;;
60016;SDS011;45869;52.698;6.210;2023-08-06T08:07:06;11.30;;;9.50;;
60016;SDS011;45869;52.698;6.210;2023-08-06T08:09:34;12.18;;;11.00;;
60016;SDS011;45869;52.698;6.210;2023-08-06T08:12:01;12.57;;;9.43;;
60016;SDS011;45869;52.698;6.210;2023-08-06T08:14:28;10.63;;;9.57;;
60016;SDS011;45869;52.698;6.210;2023-08-06T08:16:54;12.32;;;9.95;;
60016;SDS011;45869;52.698;6.210;2023-08-06T08:19:20;12.77;;;10.48;;
60016;SDS011;45869;52.698;6.210;2023-08-06T08:21:46;11.63;;;10.52;;
60016;SDS011;45869;52.698;6.210;2023-08-06T08:24:12;10.18;;;9.10;;
60016;SDS011;45869;52.698;6.210;2023-08-06T08:26:38;10.15;;;9.13;;
60016;SDS011;45869;52.698;6.210;2023-08-06T08:29:04;11.20;;;8.93;;
60016;SDS011;45869;52.698;6.210;2023-08-06T08:31:31;10.30;;;9.18;;
60016;SDS011;45869;52.698;6.210;2023-08-06T08:34:03;10.05;;;8.80;;
60016;SDS011;45869;52.698;6.210;2023-08-06T08:36:29;9.63;;;8.63;;
60016;SDS011;45869;52.698;6.210;2023-08-06T08:38:55;11.40;;;8.80;;
60016;SDS011;45869;52.698;6.210;2023-08-06T08:41:22;10.32;;;8.10;;
60016;SDS011;45869;52.698;6.210;2023-08-06T08:43:48;10.07;;;8.98;;
60016;SDS011;45869;52.698;6.210;2023-08-06T08:46:19;9.85;;;8.85;;
60016;SDS011;45869;52.698;6.210;2023-08-06T08:48:45;8.77;;;7.88;;
60016;SDS011;45869;52.698;6.210;2023-08-06T08:51:12;8.63;;;7.82;;
60016;SDS011;45869;52.698;6.210;2023-08-06T08:53:39;8.55;;;7.75;;
60016;SDS011;45869;52.698;6.210;2023-08-06T08:56:05;9.55;;;7.60;;
60016;SDS011;45869;52.698;6.210;2023-08-06T08:58:34;8.13;;;7.07;;
60016;SDS011;45869;52.698;6.210;2023-08-06T09:01:00;7.45;;;6.60;;
60016;SDS011;45869;52.698;6.210;2023-08-06T09:03:26;7.13;;;6.18;;
60016;SDS011;45869;52.698;6.210;2023-08-06T09:05:53;8.95;;;8.02;;
60016;SDS011;45869;52.698;6.210;2023-08-06T09:08:21;7.45;;;6.75;;
60016;SDS011;45869;52.698;6.210;2023-08-06T09:10:48;8.88;;;7.70;;
60016;SDS011;45869;52.698;6.210;2023-08-06T09:13:15;9.38;;;7.45;;
60016;SDS011;45869;52.698;6.210;2023-08-06T09:15:41;7.78;;;6.80;;
60016;SDS011;45869;52.698;6.210;2023-08-06T09:18:09;7.70;;;6.80;;
60016;SDS011;45869;52.698;6.210;2023-08-06T09:20:37;7.28;;;6.57;;
60016;SDS011;45869;52.698;6.210;2023-08-06T09:23:09;7.95;;;7.15;;
60016;SDS011;45869;52.698;6.210;2023-08-06T09:25:37;7.68;;;6.65;;
60016;SDS011;45869;52.698;6.210;2023-08-06T09:28:07;9.13;;;8.15;;
60016;SDS011;45869;52.698;6.210;2023-08-06T09:30:34;7.70;;;7.00;;
60016;SDS011;45869;52.698;6.210;2023-08-06T09:33:00;7.03;;;6.32;;
60016;SDS011;45869;52.698;6.210;2023-08-06T09:35:29;7.10;;;6.22;;
60016;SDS011;45869;52.698;6.210;2023-08-06T09:38:03;7.95;;;7.15;;
60016;SDS011;45869;52.698;6.210;2023-08-06T09:40:32;8.13;;;6.80;;
60016;SDS011;45869;52.698;6.210;2023-08-06T09:42:59;7.50;;;6.80;;
60016;SDS011;45869;52.698;6.210;2023-08-06T09:45:30;9.60;;;6.43;;
60016;SDS011;45869;52.698;6.210;2023-08-06T09:47:57;7.05;;;6.40;;
60016;SDS011;45869;52.698;6.210;2023-08-06T09:50:25;7.53;;;5.97;;
60016;SDS011;45869;52.698;6.210;2023-08-06T09:52:54;6.32;;;5.45;;
60016;SDS011;45869;52.698;6.210;2023-08-06T09:55:20;7.93;;;6.97;;
60016;SDS011;45869;52.698;6.210;2023-08-06T09:57:47;6.78;;;5.90;;
60016;SDS011;45869;52.698;6.210;2023-08-06T10:00:14;6.13;;;5.53;;
60016;SDS011;45869;52.698;6.210;2023-08-06T10:02:41;6.47;;;5.63;;
60016;SDS011;45869;52.698;6.210;2023-08-06T10:05:08;5.72;;;4.88;;
60016;SDS011;45869;52.698;6.210;2023-08-06T10:07:35;8.50;;;4.65;;
60016;SDS011;45869;52.698;6.210;2023-08-06T10:10:02;4.93;;;4.43;;
60016;SDS011;45869;52.698;6.210;2023-08-06T10:12:29;6.35;;;4.18;;
60016;SDS011;45869;52.698;6.210;2023-08-06T10:14:58;5.13;;;4.30;;
60016;SDS011;45869;52.698;6.210;2023-08-06T10:17:25;4.55;;;4.00;;
60016;SDS011;45869;52.698;6.210;2023-08-06T10:19:52;5.75;;;3.92;;
60016;SDS011;45869;52.698;6.210;2023-08-06T10:22:20;4.40;;;3.70;;
60016;SDS011;45869;52.698;6.210;2023-08-06T10:24:47;5.45;;;4.25;;
60016;SDS011;45869;52.698;6.210;2023-08-06T10:27:13;4.53;;;4.13;;
60016;SDS011;45869;52.698;6.210;2023-08-06T10:29:39;4.90;;;4.40;;
60016;SDS011;45869;52.698;6.210;2023-08-06T10:32:05;5.35;;;4.85;;
60016;SDS011;45869;52.698;6.210;2023-08-06T10:37:16;6.47;;;3.88;;
60016;SDS011;45869;52.698;6.210;2023-08-06T10:39:51;4.15;;;3.58;;
60016;SDS011;45869;52.698;6.210;2023-08-06T10:42:20;4.88;;;3.50;;
60016;SDS011;45869;52.698;6.210;2023-08-06T10:47:37;5.25;;;4.75;;
60016;SDS011;45869;52.698;6.210;2023-08-06T10:50:04;4.55;;;3.80;;
60016;SDS011;45869;52.698;6.210;2023-08-06T10:52:31;5.72;;;3.40;;
60016;SDS011;45869;52.698;6.210;2023-08-06T10:54:57;5.38;;;3.85;;
60016;SDS011;45869;52.698;6.210;2023-08-06T10:57:23;5.60;;;3.92;;
60016;SDS011;45869;52.698;6.210;2023-08-06T10:59:49;4.32;;;3.20;;
60016;SDS011;45869;52.698;6.210;2023-08-06T11:02:16;5.70;;;3.58;;
60016;SDS011;45869;52.698;6.210;2023-08-06T11:04:42;3.38;;;3.08;;
60016;SDS011;45869;52.698;6.210;2023-08-06T11:07:08;4.22;;;3.55;;
60016;SDS011;45869;52.698;6.210;2023-08-06T11:09:34;4.15;;;3.33;;
60016;SDS011;45869;52.698;6.210;2023-08-06T11:12:00;4.00;;;3.30;;
60016;SDS011;45869;52.698;6.210;2023-08-06T11:14:30;4.60;;;3.20;;
60016;SDS011;45869;52.698;6.210;2023-08-06T11:16:56;5.88;;;3.25;;
60016;SDS011;45869;52.698;6.210;2023-08-06T11:19:22;5.22;;;3.80;;
60016;SDS011;45869;52.698;6.210;2023-08-06T11:21:49;4.05;;;3.63;;
60016;SDS011;45869;52.698;6.210;2023-08-06T11:24:15;4.88;;;3.50;;
60016;SDS011;45869;52.698;6.210;2023-08-06T11:26:41;4.03;;;3.20;;
60016;SDS011;45869;52.698;6.210;2023-08-06T11:29:09;4.32;;;3.33;;
60016;SDS011;45869;52.698;6.210;2023-08-06T11:31:35;4.03;;;2.80;;
60016;SDS011;45869;52.698;6.210;2023-08-06T11:34:01;4.65;;;2.65;;
60016;SDS011;45869;52.698;6.210;2023-08-06T11:36:31;3.13;;;1.70;;
60016;SDS011;45869;52.698;6.210;2023-08-06T11:39:01;3.53;;;2.00;;
60016;SDS011;45869;52.698;6.210;2023-08-06T11:41:28;4.97;;;1.90;;
60016;SDS011;45869;52.698;6.210;2023-08-06T11:44:03;2.67;;;1.80;;
60016;SDS011;45869;52.698;6.210;2023-08-06T11:46:42;2.90;;;1.60;;
60016;SDS011;45869;52.698;6.210;2023-08-06T11:49:15;3.28;;;1.90;;
60016;SDS011;45869;52.698;6.210;2023-08-06T11:51:41;2.80;;;2.00;;
60016;SDS011;45869;52.698;6.210;2023-08-06T11:54:07;2.97;;;1.92;;
60016;SDS011;45869;52.698;6.210;2023-08-06T11:56:33;1.92;;;1.42;;
60016;SDS011;45869;52.698;6.210;2023-08-06T11:59:00;4.18;;;1.45;;
60016;SDS011;45869;52.698;6.210;2023-08-06T12:01:26;3.13;;;1.90;;
60016;SDS011;45869;52.698;6.210;2023-08-06T12:03:57;2.67;;;1.50;;
60016;SDS011;45869;52.698;6.210;2023-08-06T12:06:26;1.92;;;1.40;;
60016;SDS011;45869;52.698;6.210;2023-08-06T12:08:52;2.80;;;1.60;;
60016;SDS011;45869;52.698;6.210;2023-08-06T12:11:20;3.90;;;1.40;;
60016;SDS011;45869;52.698;6.210;2023-08-06T12:13:50;3.17;;;1.70;;
60016;SDS011;45869;52.698;6.210;2023-08-06T12:16:16;3.10;;;1.70;;
60016;SDS011;45869;52.698;6.210;2023-08-06T12:18:44;2.67;;;1.20;;
60016;SDS011;45869;52.698;6.210;2023-08-06T12:21:10;2.78;;;1.38;;
60016;SDS011;45869;52.698;6.210;2023-08-06T12:23:36;3.08;;;1.63;;
60016;SDS011;45869;52.698;6.210;2023-08-06T12:26:02;2.05;;;1.38;;
60016;SDS011;45869;52.698;6.210;2023-08-06T12:28:28;2.33;;;1.40;;
60016;SDS011;45869;52.698;6.210;2023-08-06T12:30:54;3.38;;;1.38;;
60016;SDS011;45869;52.698;6.210;2023-08-06T12:33:20;2.42;;;1.00;;
60016;SDS011;45869;52.698;6.210;2023-08-06T12:35:46;1.60;;;1.13;;
60016;SDS011;45869;52.698;6.210;2023-08-06T12:38:12;3.35;;;1.13;;
60016;SDS011;45869;52.698;6.210;2023-08-06T12:40:39;1.50;;;1.08;;
60016;SDS011;45869;52.698;6.210;2023-08-06T12:43:05;1.83;;;0.90;;
60016;SDS011;45869;52.698;6.210;2023-08-06T12:45:31;1.65;;;1.00;;
60016;SDS011;45869;52.698;6.210;2023-08-06T12:47:57;3.35;;;1.25;;
60016;SDS011;45869;52.698;6.210;2023-08-06T12:50:23;2.58;;;1.55;;
60016;SDS011;45869;52.698;6.210;2023-08-06T12:52:49;2.47;;;1.45;;
60016;SDS011;45869;52.698;6.210;2023-08-06T12:55:15;2.35;;;1.55;;
60016;SDS011;45869;52.698;6.210;2023-08-06T12:57:41;2.55;;;1.70;;
60016;SDS011;45869;52.698;6.210;2023-08-06T13:00:07;2.75;;;1.60;;
60016;SDS011;45869;52.698;6.210;2023-08-06T13:02:33;2.42;;;1.40;;
60016;SDS011;45869;52.698;6.210;2023-08-06T13:04:59;2.22;;;1.40;;
60016;SDS011;45869;52.698;6.210;2023-08-06T13:07:28;2.42;;;1.40;;
60016;SDS011;45869;52.698;6.210;2023-08-06T13:09:54;2.75;;;1.50;;
60016;SDS011;45869;52.698;6.210;2023-08-06T13:12:20;2.05;;;1.23;;
60016;SDS011;45869;52.698;6.210;2023-08-06T13:14:48;2.45;;;1.23;;
60016;SDS011;45869;52.698;6.210;2023-08-06T13:17:14;4.43;;;1.42;;
60016;SDS011;45869;52.698;6.210;2023-08-06T13:19:40;2.45;;;1.40;;
60016;SDS011;45869;52.698;6.210;2023-08-06T13:22:06;3.40;;;1.80;;
60016;SDS011;45869;52.698;6.210;2023-08-06T13:24:33;2.60;;;1.40;;
60016;SDS011;45869;52.698;6.210;2023-08-06T13:27:00;2.83;;;1.38;;
60016;SDS011;45869;52.698;6.210;2023-08-06T13:29:29;2.72;;;1.35;;
60016;SDS011;45869;52.698;6.210;2023-08-06T13:31:55;2.60;;;1.40;;
60016;SDS011;45869;52.698;6.210;2023-08-06T13:34:21;3.83;;;2.05;;
60016;SDS011;45869;52.698;6.210;2023-08-06T13:36:47;2.92;;;1.80;;
60016;SDS011;45869;52.698;6.210;2023-08-06T13:39:13;2.42;;;1.55;;
60016;SDS011;45869;52.698;6.210;2023-08-06T13:41:42;2.97;;;1.75;;
60016;SDS011;45869;52.698;6.210;2023-08-06T13:44:08;4.22;;;1.80;;
60016;SDS011;45869;52.698;6.210;2023-08-06T13:46:35;2.40;;;1.67;;
60016;SDS011;45869;52.698;6.210;2023-08-06T13:49:02;3.72;;;2.20;;
60016;SDS011;45869;52.698;6.210;2023-08-06T13:51:28;4.30;;;2.35;;
60016;SDS011;45869;52.698;6.210;2023-08-06T13:53:54;4.22;;;2.67;;
60016;SDS011;45869;52.698;6.210;2023-08-06T13:56:21;4.35;;;3.10;;
60016;SDS011;45869;52.698;6.210;2023-08-06T13:58:47;8.15;;;3.40;;
60016;SDS011;45869;52.698;6.210;2023-08-06T14:01:13;4.63;;;2.95;;
60016;SDS011;45869;52.698;6.210;2023-08-06T14:03:43;4.10;;;3.30;;
60016;SDS011;45869;52.698;6.210;2023-08-06T14:06:09;5.68;;;3.17;;
60016;SDS011;45869;52.698;6.210;2023-08-06T14:08:35;4.18;;;3.13;;
60016;SDS011;45869;52.698;6.210;2023-08-06T14:11:01;5.68;;;3.58;;
60016;SDS011;45869;52.698;6.210;2023-08-06T14:13:27;4.88;;;3.20;;
60016;SDS011;45869;52.698;6.210;2023-08-06T14:15:53;5.25;;;3.63;;
60016;SDS011;45869;52.698;6.210;2023-08-06T14:18:19;7.70;;;3.63;;
60016;SDS011;45869;52.698;6.210;2023-08-06T14:20:45;5.45;;;3.38;;
60016;SDS011;45869;52.698;6.210;2023-08-06T14:23:11;8.07;;;4.13;;
60016;SDS011;45869;52.698;6.210;2023-08-06T14:25:38;8.75;;;4.45;;
60016;SDS011;45869;52.698;6.210;2023-08-06T14:28:05;9.30;;;4.03;;
60016;SDS011;45869;52.698;6.210;2023-08-06T14:30:31;6.75;;;3.88;;
60016;SDS011;45869;52.698;6.210;2023-08-06T14:33:00;5.43;;;3.55;;
60016;SDS011;45869;52.698;6.210;2023-08-06T14:35:26;6.60;;;4.25;;
60016;SDS011;45869;52.698;6.210;2023-08-06T14:37:53;4.82;;;3.60;;
60016;SDS011;45869;52.698;6.210;2023-08-06T14:40:19;5.93;;;3.40;;
60016;SDS011;45869;52.698;6.210;2023-08-06T14:42:45;6.60;;;3.67;;
60016;SDS011;45869;52.698;6.210;2023-08-06T14:45:11;6.90;;;3.58;;
60016;SDS011;45869;52.698;6.210;2023-08-06T14:47:37;6.10;;;4.07;;
60016;SDS011;45869;52.698;6.210;2023-08-06T14:50:03;6.75;;;4.05;;
60016;SDS011;45869;52.698;6.210;2023-08-06T14:52:29;6.38;;;3.70;;
60016;SDS011;45869;52.698;6.210;2023-08-06T14:54:55;5.70;;;3.50;;
60016;SDS011;45869;52.698;6.210;2023-08-06T14:57:21;7.63;;;3.97;;